Terminal Aerodrome Forecast
Issued by NWS Quad Cities IA IL

Home | Current Version | Previous Version | Text Only | Print | Product List | Glossary On
Versions: 1 2 3 4 5 6 7 8 9 10 11 12 13 14 15 16 17
887
FTUS43 KDVN 092342
TAFMLI
TAF
KMLI 092342Z 1000/1024 VRB03KT P6SM SCT025 BKN080
     FM101600 15005KT P6SM OVC050
     FM102100 14008KT 1 1/2SM -SN BR OVC018=

USA.gov is the U.S. government's official web portal to all federal, state and local government web resources and services.